Meldreth, United Kingdom
Current Conditions -  °F | °C
As of 10:50 AM on Sunday 23 Nov 2014 (Local Time) from EGSC Reporting Station
Moderate Rain Moderate Rain  
Wind Chill: 41°   Ceiling: 1700
Heat Index: 45°   Visibility: 6mi
Dew Point: 45°   Wind: 7mph
Humidity: 100%   Direction: 330°NNW
Pressure: 30.03"   Gusts: NA
Location:  52.09°N, 0.01°E
Report Text: EGSC 231050Z 33006KT 260V030 9000 RA SCT004 BKN017 07/07 Q1017
Loading
Personal Weather Stations






























Interactive Weather Map New forecast layout! Learn more

10-Day Weather Forecast

Advertisements
Track Severe Weather on mobile